Time;durP1;ratioP1;P1;durP2;ratioP2;P2;SDS_P1;SDS_P2;PMS_P1;PMS_P2;Temp;Humidity;BMP_temperature;BMP_pressure;BME280_temperature;BME280_humidity;BME280_pressure;Samples;Min_cycle;Max_cycle;Signal;HPM_P1;HPM_P2
2022/03/24 00:01:21;;;;;;;;;;;19.50;50.10;;;;;;5001219;28;20389;-56
2022/03/24 00:03:46;;;;;;;;;;;19.40;50.00;;;;;;5000590;28;20008;-54
2022/03/24 00:06:15;;;;;;;;;;;19.50;50.00;;;;;;5000095;28;19920;-53
2022/03/24 00:08:40;;;;;;;;;;;19.50;50.00;;;;;;4999921;28;20026;-52
2022/03/24 00:11:05;;;;;;;;;;;19.40;50.00;;;;;;5000960;28;20408;-56
2022/03/24 00:13:31;;;;;;;;;;;19.40;50.00;;;;;;5000634;28;19913;-58
2022/03/24 00:15:57;;;;;;;;;;;19.40;50.00;;;;;;5000721;28;19917;-57
2022/03/24 00:18:23;;;;;;;;;;;19.40;49.90;;;;;;5000286;28;19976;-56
2022/03/24 00:20:48;;;;;;;;;;;19.40;49.90;;;;;;5000729;28;19918;-56
2022/03/24 00:23:14;;;;;;;;;;;19.40;49.90;;;;;;5000471;28;19920;-55
2022/03/24 00:25:39;;;;;;;;;;;19.40;49.80;;;;;;5000449;28;19969;-55
2022/03/24 00:28:06;;;;;;;;;;;19.40;49.80;;;;;;4999187;28;19921;-53
2022/03/24 00:30:31;;;;;;;;;;;19.40;49.80;;;;;;4999535;28;20178;-55
2022/03/24 00:32:57;;;;;;;;;;;19.30;49.80;;;;;;5000439;28;19913;-56
2022/03/24 00:35:24;;;;;;;;;;;19.40;49.80;;;;;;4999763;28;19917;-55
2022/03/24 00:37:50;;;;;;;;;;;19.40;49.70;;;;;;5000200;28;19917;-57
2022/03/24 00:40:17;;;;;;;;;;;19.40;49.70;;;;;;4999601;28;19945;-51
2022/03/24 00:42:43;;;;;;;;;;;19.40;49.60;;;;;;5000474;28;19988;-57
2022/03/24 00:45:12;;;;;;;;;;;19.40;49.60;;;;;;5000079;28;19918;-55
2022/03/24 00:47:38;;;;;;;;;;;19.40;49.60;;;;;;4999884;28;20008;-55
2022/03/24 00:50:04;;;;;;;;;;;19.40;49.50;;;;;;4999552;28;19925;-56
2022/03/24 00:52:30;;;;;;;;;;;19.40;49.50;;;;;;4999685;28;20660;-56
2022/03/24 00:54:55;;;;;;;;;;;19.30;49.50;;;;;;4999519;28;19913;-54
2022/03/24 00:57:21;;;;;;;;;;;19.40;49.50;;;;;;4999860;28;19918;-56
2022/03/24 00:59:46;;;;;;;;;;;19.30;49.50;;;;;;4999454;28;19972;-58
2022/03/24 01:02:12;;;;;;;;;;;19.30;49.50;;;;;;5000862;28;19917;-56
2022/03/24 01:04:38;;;;;;;;;;;19.30;49.50;;;;;;4999384;28;19913;-58
2022/03/24 01:07:03;;;;;;;;;;;19.30;49.60;;;;;;4999060;28;20013;-54
2022/03/24 01:09:29;;;;;;;;;;;19.20;49.60;;;;;;4999412;28;20020;-54
2022/03/24 01:11:56;;;;;;;;;;;19.20;49.60;;;;;;5019509;28;19913;-52
2022/03/24 01:14:22;;;;;;;;;;;19.30;49.60;;;;;;5019599;28;20795;-57
2022/03/24 01:16:50;;;;;;;;;;;19.20;49.60;;;;;;5019155;28;20445;-54
2022/03/24 01:19:15;;;;;;;;;;;19.20;49.60;;;;;;5019259;28;20165;-52
2022/03/24 01:21:41;;;;;;;;;;;19.20;49.60;;;;;;5018385;28;19925;-55
2022/03/24 01:24:09;;;;;;;;;;;19.20;49.60;;;;;;5019407;28;20401;-54
2022/03/24 01:26:35;;;;;;;;;;;19.20;49.60;;;;;;5019419;28;19917;-57
2022/03/24 01:29:01;;;;;;;;;;;19.10;49.70;;;;;;5018870;28;19913;-52
2022/03/24 01:31:26;;;;;;;;;;;19.10;49.60;;;;;;5019123;28;19920;-54
2022/03/24 01:33:51;;;;;;;;;;;19.10;49.50;;;;;;5019184;28;20476;-55
2022/03/24 01:36:18;;;;;;;;;;;19.10;49.60;;;;;;5019170;28;19918;-57
2022/03/24 01:38:43;;;;;;;;;;;19.10;49.70;;;;;;5018857;28;19921;-57
2022/03/24 01:41:09;;;;;;;;;;;19.10;49.60;;;;;;5019185;28;19913;-57
2022/03/24 01:43:34;;;;;;;;;;;19.10;49.60;;;;;;5019069;28;19952;-58
2022/03/24 01:46:00;;;;;;;;;;;19.10;49.60;;;;;;5019404;28;19963;-56
2022/03/24 01:48:26;;;;;;;;;;;19.10;49.70;;;;;;5019196;28;19917;-55
2022/03/24 01:50:52;;;;;;;;;;;19.10;49.70;;;;;;5018750;28;19917;-56
2022/03/24 01:53:18;;;;;;;;;;;19.10;49.80;;;;;;5019948;28;19921;-55
2022/03/24 01:55:43;;;;;;;;;;;19.10;49.70;;;;;;5018874;28;19967;-55
2022/03/24 01:58:09;;;;;;;;;;;19.10;49.70;;;;;;5019280;28;19964;-56
2022/03/24 02:00:34;;;;;;;;;;;19.10;49.60;;;;;;5018595;28;19917;-57
2022/03/24 02:03:02;;;;;;;;;;;19.10;49.60;;;;;;5019025;28;19924;-57
2022/03/24 02:05:29;;;;;;;;;;;19.10;49.70;;;;;;5017644;28;19991;-56
2022/03/24 02:07:54;;;;;;;;;;;19.10;49.50;;;;;;5017796;28;19913;-53
2022/03/24 02:10:20;;;;;;;;;;;19.10;49.50;;;;;;5019128;28;19920;-54
2022/03/24 02:12:45;;;;;;;;;;;19.10;49.50;;;;;;5019552;28;19913;-57
2022/03/24 02:15:11;;;;;;;;;;;19.10;49.40;;;;;;5018916;28;20352;-54
2022/03/24 02:17:39;;;;;;;;;;;19.20;49.40;;;;;;5021910;28;19921;-57
2022/03/24 02:20:06;;;;;;;;;;;19.10;49.50;;;;;;5021927;28;19964;-55
2022/03/24 02:22:31;;;;;;;;;;;19.10;49.40;;;;;;5022383;28;20382;-57
2022/03/24 02:24:57;;;;;;;;;;;19.10;49.40;;;;;;5020976;28;19913;-57
2022/03/24 02:27:24;;;;;;;;;;;19.10;49.40;;;;;;5022513;28;19916;-56
2022/03/24 02:29:50;;;;;;;;;;;19.10;49.40;;;;;;5022076;28;19937;-57
2022/03/24 02:32:19;;;;;;;;;;;19.00;49.40;;;;;;5022488;28;20297;-53
2022/03/24 02:34:47;;;;;;;;;;;19.00;49.50;;;;;;5022049;28;20468;-54
2022/03/24 02:37:14;;;;;;;;;;;19.00;49.40;;;;;;5022016;28;19925;-56
2022/03/24 02:39:43;;;;;;;;;;;19.00;49.40;;;;;;5021780;28;19952;-57
2022/03/24 02:42:14;;;;;;;;;;;19.00;49.40;;;;;;5021404;28;20008;-55
2022/03/24 02:44:40;;;;;;;;;;;19.00;49.40;;;;;;5021833;28;19975;-56
2022/03/24 02:47:08;;;;;;;;;;;18.90;49.60;;;;;;5021840;28;20195;-58
2022/03/24 02:49:34;;;;;;;;;;;18.90;49.60;;;;;;5022003;28;19975;-56
2022/03/24 02:52:00;;;;;;;;;;;18.90;49.60;;;;;;5021086;28;19933;-57
2022/03/24 02:54:27;;;;;;;;;;;18.90;49.60;;;;;;5022154;28;19913;-56
2022/03/24 02:56:52;;;;;;;;;;;18.90;49.60;;;;;;5021232;28;19925;-53
2022/03/24 02:59:18;;;;;;;;;;;18.90;49.60;;;;;;5021887;28;19979;-57
2022/03/24 03:01:47;;;;;;;;;;;18.90;49.60;;;;;;5021390;28;19917;-57
2022/03/24 03:04:13;;;;;;;;;;;18.90;49.60;;;;;;5021757;28;19913;-55
2022/03/24 03:06:39;;;;;;;;;;;18.90;49.60;;;;;;5021852;28;19913;-52
2022/03/24 03:09:04;;;;;;;;;;;18.80;49.60;;;;;;5021078;28;19913;-54
2022/03/24 03:11:33;;;;;;;;;;;18.80;49.60;;;;;;5022009;28;20317;-51
2022/03/24 03:13:58;;;;;;;;;;;18.80;49.50;;;;;;5021582;28;19917;-55
2022/03/24 03:16:24;;;;;;;;;;;18.80;49.50;;;;;;5021474;28;19927;-58
2022/03/24 03:18:49;;;;;;;;;;;18.80;49.50;;;;;;5021041;28;20063;-52
2022/03/24 03:21:16;;;;;;;;;;;18.80;49.50;;;;;;5021549;28;19917;-51
2022/03/24 03:23:42;;;;;;;;;;;18.80;49.50;;;;;;5021152;28;19913;-56
2022/03/24 03:26:07;;;;;;;;;;;18.80;49.50;;;;;;5021103;28;19920;-55
2022/03/24 03:28:33;;;;;;;;;;;18.80;49.60;;;;;;5020419;28;19924;-58
2022/03/24 03:30:58;;;;;;;;;;;18.80;49.60;;;;;;5021394;28;19920;-57
2022/03/24 03:33:24;;;;;;;;;;;18.80;49.60;;;;;;5001424;28;19917;-58
2022/03/24 03:35:49;;;;;;;;;;;18.70;49.50;;;;;;5001304;28;19917;-55
2022/03/24 03:38:15;;;;;;;;;;;18.70;49.60;;;;;;5001905;28;20362;-56
2022/03/24 03:40:40;;;;;;;;;;;18.70;49.50;;;;;;5000976;28;20439;-55
2022/03/24 03:43:06;;;;;;;;;;;18.70;49.50;;;;;;5001285;28;20105;-54
2022/03/24 03:45:31;;;;;;;;;;;18.70;49.50;;;;;;5000752;28;19917;-58
2022/03/24 03:47:57;;;;;;;;;;;18.70;49.50;;;;;;5000860;28;19926;-56
2022/03/24 03:50:22;;;;;;;;;;;18.70;49.40;;;;;;5001210;28;20445;-56
2022/03/24 03:52:47;;;;;;;;;;;18.70;49.40;;;;;;5001256;28;19913;-55
2022/03/24 03:55:13;;;;;;;;;;;18.70;49.40;;;;;;5001097;28;19917;-56
2022/03/24 03:57:38;;;;;;;;;;;18.70;49.30;;;;;;5000944;28;19917;-55
2022/03/24 04:00:52;;;;;;;;;;;18.80;49.30;;;;;;5000755;28;19914;-56
2022/03/24 04:02:51;;;;;;;;;;;18.70;49.20;;;;;;5001530;28;20023;-56
2022/03/24 04:05:23;;;;;;;;;;;18.70;49.10;;;;;;4995265;28;20051;-54
2022/03/24 04:07:49;;;;;;;;;;;18.70;49.20;;;;;;5000566;28;20375;-57
2022/03/24 04:10:14;;;;;;;;;;;18.70;49.20;;;;;;5000804;28;19913;-55
2022/03/24 04:12:40;;;;;;;;;;;18.70;49.10;;;;;;5000989;28;19914;-56
2022/03/24 04:15:06;;;;;;;;;;;18.70;49.20;;;;;;5000680;28;19913;-56
2022/03/24 04:17:31;;;;;;;;;;;18.60;49.20;;;;;;5000531;28;19921;-53
2022/03/24 04:19:57;;;;;;;;;;;18.60;49.20;;;;;;5000279;28;19918;-56
2022/03/24 04:22:22;;;;;;;;;;;18.60;49.20;;;;;;5001082;28;19976;-53
2022/03/24 04:24:48;;;;;;;;;;;18.60;49.20;;;;;;5000424;28;19960;-57
2022/03/24 04:27:13;;;;;;;;;;;18.60;49.20;;;;;;5000509;28;19917;-52
2022/03/24 04:29:39;;;;;;;;;;;18.60;49.10;;;;;;4999840;28;19921;-54
2022/03/24 04:32:05;;;;;;;;;;;18.60;49.20;;;;;;5000020;28;19924;-56
2022/03/24 04:34:30;;;;;;;;;;;18.60;49.10;;;;;;5000435;28;19914;-55
2022/03/24 04:36:56;;;;;;;;;;;18.60;49.10;;;;;;5000671;28;19918;-58
2022/03/24 04:39:21;;;;;;;;;;;18.60;49.10;;;;;;5000566;28;19925;-55
2022/03/24 04:41:47;;;;;;;;;;;18.50;49.00;;;;;;5000474;28;20386;-56
2022/03/24 04:44:13;;;;;;;;;;;18.60;49.10;;;;;;4999658;28;19937;-57
2022/03/24 04:46:38;;;;;;;;;;;18.50;49.10;;;;;;5000150;28;20391;-58
2022/03/24 04:49:04;;;;;;;;;;;18.50;49.10;;;;;;4999851;28;19975;-55
2022/03/24 04:51:29;;;;;;;;;;;18.60;49.10;;;;;;5000569;28;20616;-56
2022/03/24 04:53:55;;;;;;;;;;;18.50;49.10;;;;;;5000267;28;19913;-57
2022/03/24 04:56:20;;;;;;;;;;;18.50;49.70;;;;;;5000537;28;19917;-54
2022/03/24 04:58:46;;;;;;;;;;;18.50;49.10;;;;;;4999683;28;20085;-56
2022/03/24 05:01:14;;;;;;;;;;;18.60;49.10;;;;;;5000027;28;19914;-55
2022/03/24 05:03:42;;;;;;;;;;;18.50;49.10;;;;;;4999358;28;19913;-56
2022/03/24 05:06:08;;;;;;;;;;;18.50;49.10;;;;;;4999887;28;20366;-54
2022/03/24 05:08:33;;;;;;;;;;;18.50;49.10;;;;;;4998863;28;19924;-57
2022/03/24 05:10:59;;;;;;;;;;;18.50;49.00;;;;;;4999885;28;19918;-56
2022/03/24 05:13:24;;;;;;;;;;;18.50;48.90;;;;;;4999400;28;20370;-55
2022/03/24 05:15:50;;;;;;;;;;;18.50;48.90;;;;;;5000207;28;19974;-58
2022/03/24 05:18:15;;;;;;;;;;;18.50;48.80;;;;;;5000397;28;19967;-55
2022/03/24 05:20:41;;;;;;;;;;;18.60;48.80;;;;;;4999180;28;19914;-55
2022/03/24 05:23:06;;;;;;;;;;;18.60;48.80;;;;;;4996417;28;19914;-56
2022/03/24 05:25:31;;;;;;;;;;;18.60;48.80;;;;;;5011953;22;20019;-57
2022/03/24 05:27:57;;;;;;;;;;;18.50;48.70;;;;;;5001309;28;19917;-57
2022/03/24 05:30:22;;;;;;;;;;;18.50;48.90;;;;;;5002281;28;20321;-56
2022/03/24 05:32:48;;;;;;;;;;;18.50;48.80;;;;;;5001929;28;20073;-55
2022/03/24 05:35:14;;;;;;;;;;;18.50;48.90;;;;;;5012611;28;19932;-57
2022/03/24 05:37:40;;;;;;;;;;;18.50;48.90;;;;;;5021057;28;19921;-54
2022/03/24 05:40:05;;;;;;;;;;;18.50;49.20;;;;;;5021622;28;19914;-58
2022/03/24 05:42:31;;;;;;;;;;;18.50;49.30;;;;;;5021823;28;20016;-57
2022/03/24 05:44:56;;;;;;;;;;;18.40;49.10;;;;;;5020760;28;20004;-58
2022/03/24 05:47:22;;;;;;;;;;;18.50;49.10;;;;;;5022341;28;19913;-56
2022/03/24 05:49:48;;;;;;;;;;;18.50;49.30;;;;;;5015868;28;19914;-56
2022/03/24 05:52:14;;;;;;;;;;;18.40;49.20;;;;;;5004601;28;20401;-56
2022/03/24 05:54:40;;;;;;;;;;;18.50;49.20;;;;;;5004859;28;20510;-56
2022/03/24 05:57:05;;;;;;;;;;;18.50;50.50;;;;;;5002643;28;19925;-55
2022/03/24 05:59:31;;;;;;;;;;;18.70;50.00;;;;;;5006616;28;20306;-57
2022/03/24 06:01:56;;;;;;;;;;;18.80;49.60;;;;;;5025324;28;19913;-54
2022/03/24 06:04:22;;;;;;;;;;;18.90;49.40;;;;;;5026202;28;19913;-56
2022/03/24 06:06:50;;;;;;;;;;;19.00;49.30;;;;;;5005816;28;19920;-58
2022/03/24 06:09:16;;;;;;;;;;;19.10;49.20;;;;;;5005589;28;20263;-58
2022/03/24 06:11:42;;;;;;;;;;;19.10;49.10;;;;;;5005392;28;19921;-57
2022/03/24 06:14:12;;;;;;;;;;;19.10;49.00;;;;;;5005511;28;19914;-58
2022/03/24 06:16:38;;;;;;;;;;;19.10;48.90;;;;;;5022105;28;20279;-58
2022/03/24 06:19:03;;;;;;;;;;;19.10;48.90;;;;;;5024776;28;19924;-57
2022/03/24 06:21:29;;;;;;;;;;;19.10;48.90;;;;;;5007641;28;19944;-55
2022/03/24 06:23:54;;;;;;;;;;;19.10;48.80;;;;;;5004610;28;19917;-56
2022/03/24 06:26:21;;;;;;;;;;;19.10;48.80;;;;;;5018295;28;20397;-58
2022/03/24 06:28:47;;;;;;;;;;;19.20;49.00;;;;;;5024894;28;19921;-57
2022/03/24 06:31:12;;;;;;;;;;;19.10;48.90;;;;;;5013341;28;19920;-57
2022/03/24 06:33:38;;;;;;;;;;;19.20;48.90;;;;;;5004466;28;19913;-58
2022/03/24 06:36:04;;;;;;;;;;;19.10;48.80;;;;;;5004911;28;20309;-57
2022/03/24 06:38:29;;;;;;;;;;;19.10;48.70;;;;;;5005276;28;20287;-58
2022/03/24 06:40:55;;;;;;;;;;;19.10;48.70;;;;;;5012311;28;19913;-59
2022/03/24 06:43:20;;;;;;;;;;;19.10;49.50;;;;;;5025468;28;19917;-56
2022/03/24 06:45:46;;;;;;;;;;;19.10;48.70;;;;;;5018634;28;19924;-57
2022/03/24 06:48:13;;;;;;;;;;;19.00;48.70;;;;;;5003331;28;19913;-56
2022/03/24 06:50:38;;;;;;;;;;;19.00;49.00;;;;;;5003221;28;19921;-58
2022/03/24 06:53:04;;;;;;;;;;;19.00;48.80;;;;;;4999614;28;19920;-58
2022/03/24 06:55:29;;;;;;;;;;;19.10;50.40;;;;;;5013995;28;20004;-57
2022/03/24 06:57:54;;;;;;;;;;;19.10;50.20;;;;;;5002227;28;19918;-59
2022/03/24 07:00:20;;;;;;;;;;;19.10;50.00;;;;;;5004445;28;19939;-58
2022/03/24 07:02:46;;;;;;;;;;;19.10;50.00;;;;;;5023065;28;19920;-59
2022/03/24 07:05:12;;;;;;;;;;;19.10;49.80;;;;;;5023563;28;19913;-58
2022/03/24 07:07:38;;;;;;;;;;;19.10;49.70;;;;;;5005668;28;20013;-56
2022/03/24 07:10:03;;;;;;;;;;;19.10;49.50;;;;;;5003873;28;19917;-55
2022/03/24 07:12:29;;;;;;;;;;;19.10;49.40;;;;;;5003869;28;19921;-58
2022/03/24 07:14:54;;;;;;;;;;;19.10;49.30;;;;;;5002828;28;20005;-55
2022/03/24 07:17:19;;;;;;;;;;;19.10;49.30;;;;;;5017698;28;19917;-53
2022/03/24 07:19:45;;;;;;;;;;;19.10;49.50;;;;;;5022805;28;20435;-53
2022/03/24 07:22:11;;;;;;;;;;;19.10;49.30;;;;;;5010630;28;19914;-53
2022/03/24 07:24:36;;;;;;;;;;;19.10;49.30;;;;;;5003392;28;19913;-55
2022/03/24 07:27:02;;;;;;;;;;;19.10;49.30;;;;;;5001793;28;19930;-57
2022/03/24 07:29:27;;;;;;;;;;;19.10;49.30;;;;;;5002930;28;19917;-59
2022/03/24 07:31:53;;;;;;;;;;;19.10;49.40;;;;;;5012438;28;19941;-56
2022/03/24 07:34:18;;;;;;;;;;;19.10;49.50;;;;;;5020747;28;19917;-59
2022/03/24 07:36:44;;;;;;;;;;;19.10;49.70;;;;;;5015414;28;20477;-56
2022/03/24 07:39:10;;;;;;;;;;;19.10;49.70;;;;;;5002457;28;19917;-59
2022/03/24 07:41:36;;;;;;;;;;;19.10;49.70;;;;;;5002868;28;19914;-54
2022/03/24 07:44:01;;;;;;;;;;;19.10;49.70;;;;;;5001465;28;20583;-56
2022/03/24 07:46:27;;;;;;;;;;;19.10;50.30;;;;;;5004792;28;19915;-58
2022/03/24 07:48:52;;;;;;;;;;;19.10;49.70;;;;;;5021887;28;19917;-56
2022/03/24 07:51:19;;;;;;;;;;;19.10;49.60;;;;;;5020777;28;19921;-58
2022/03/24 07:53:47;;;;;;;;;;;19.10;49.70;;;;;;5001592;28;19913;-57
2022/03/24 07:56:12;;;;;;;;;;;19.10;49.60;;;;;;5003006;28;20016;-59
2022/03/24 07:58:39;;;;;;;;;;;19.10;49.70;;;;;;5021739;28;19913;-58
2022/03/24 08:01:04;;;;;;;;;;;19.10;49.70;;;;;;5022271;28;19966;-58
2022/03/24 08:03:30;;;;;;;;;;;19.10;49.60;;;;;;5003779;28;20606;-57
2022/03/24 08:05:56;;;;;;;;;;;19.10;49.60;;;;;;5002681;28;19917;-57
2022/03/24 08:08:21;;;;;;;;;;;19.10;49.50;;;;;;5017668;28;19919;-55
2022/03/24 08:10:47;;;;;;;;;;;19.10;49.50;;;;;;5020152;28;20492;-57
2022/03/24 08:13:13;;;;;;;;;;;19.10;49.50;;;;;;5006847;28;20445;-57
2022/03/24 08:15:39;;;;;;;;;;;19.10;49.50;;;;;;5001882;28;19918;-58
2022/03/24 08:18:05;;;;;;;;;;;19.10;49.40;;;;;;5012906;28;19933;-58
2022/03/24 08:20:31;;;;;;;;;;;19.10;49.40;;;;;;5021641;28;19913;-58
2022/03/24 08:22:56;;;;;;;;;;;19.10;49.30;;;;;;5021997;28;19917;-57
2022/03/24 08:25:22;;;;;;;;;;;19.10;49.20;;;;;;5021716;28;19967;-55
2022/03/24 08:27:47;;;;;;;;;;;19.10;49.20;;;;;;5013083;28;20457;-58
2022/03/24 08:30:13;;;;;;;;;;;19.10;49.20;;;;;;5001653;28;19960;-53
2022/03/24 08:32:38;;;;;;;;;;;19.10;49.30;;;;;;5001562;28;19920;-56
2022/03/24 08:35:04;;;;;;;;;;;19.10;49.50;;;;;;5001772;28;19914;-56
2022/03/24 08:37:29;;;;;;;;;;;19.00;49.70;;;;;;5006487;28;19955;-54
2022/03/24 08:39:55;;;;;;;;;;;19.00;49.80;;;;;;5021693;28;20374;-57
2022/03/24 08:42:20;;;;;;;;;;;19.00;49.90;;;;;;5016632;28;19936;-57
2022/03/24 08:44:46;;;;;;;;;;;19.00;49.90;;;;;;5001829;28;19918;-58
2022/03/24 08:47:11;;;;;;;;;;;19.00;49.80;;;;;;5001053;28;19914;-58
2022/03/24 08:49:37;;;;;;;;;;;19.00;49.80;;;;;;5001389;28;20375;-54
2022/03/24 08:52:02;;;;;;;;;;;19.00;49.80;;;;;;5001471;28;19940;-57
2022/03/24 08:54:28;;;;;;;;;;;19.00;49.70;;;;;;5021132;28;19913;-57
2022/03/24 08:56:53;;;;;;;;;;;19.00;49.60;;;;;;5021322;28;20402;-56
2022/03/24 08:59:19;;;;;;;;;;;19.10;49.60;;;;;;5021305;28;19921;-58
2022/03/24 09:01:44;;;;;;;;;;;19.10;49.50;;;;;;5020334;28;19921;-57
2022/03/24 09:04:10;;;;;;;;;;;19.10;49.50;;;;;;5005249;28;19924;-58
2022/03/24 09:06:36;;;;;;;;;;;19.10;49.40;;;;;;5000898;28;19914;-59
2022/03/24 09:09:01;;;;;;;;;;;19.20;49.40;;;;;;5013526;28;20290;-58
2022/03/24 09:11:27;;;;;;;;;;;19.20;49.30;;;;;;5020690;28;20451;-54
2022/03/24 09:13:52;;;;;;;;;;;19.20;49.30;;;;;;5009309;28;19976;-57
2022/03/24 09:16:18;;;;;;;;;;;19.20;49.20;;;;;;5001046;28;19981;-56
2022/03/24 09:18:43;;;;;;;;;;;19.20;49.20;;;;;;5010006;28;19917;-58
2022/03/24 09:21:09;;;;;;;;;;;19.30;49.20;;;;;;5020765;28;20329;-56
2022/03/24 09:23:35;;;;;;;;;;;19.30;49.10;;;;;;5012763;28;19913;-56
2022/03/24 09:26:01;;;;;;;;;;;19.30;49.00;;;;;;4999448;28;19961;-53
2022/03/24 09:28:27;;;;;;;;;;;19.30;49.00;;;;;;5006748;28;19921;-57
2022/03/24 09:30:55;;;;;;;;;;;19.40;48.90;;;;;;5019212;28;20589;-56
2022/03/24 09:33:21;;;;;;;;;;;19.30;48.90;;;;;;5016514;28;20413;-57
2022/03/24 09:35:47;;;;;;;;;;;19.40;48.90;;;;;;4992831;28;19922;-58
2022/03/24 09:38:12;;;;;;;;;;;19.40;48.80;;;;;;5002103;28;19918;-58
2022/03/24 09:40:39;;;;;;;;;;;19.40;48.80;;;;;;5020377;28;20609;-58
2022/03/24 09:43:04;;;;;;;;;;;19.40;48.70;;;;;;5019346;28;19989;-55
2022/03/24 09:45:30;;;;;;;;;;;19.40;48.80;;;;;;5000627;28;20071;-57
2022/03/24 09:47:56;;;;;;;;;;;19.40;48.80;;;;;;5000453;28;19924;-58
2022/03/24 09:50:22;;;;;;;;;;;19.40;48.80;;;;;;5018964;28;19944;-57
2022/03/24 09:52:47;;;;;;;;;;;19.30;48.80;;;;;;5020660;28;19917;-58
2022/03/24 09:55:13;;;;;;;;;;;19.30;48.80;;;;;;5003789;28;20564;-56
2022/03/24 09:57:38;;;;;;;;;;;19.30;48.80;;;;;;5000751;28;19913;-58
2022/03/24 10:00:05;;;;;;;;;;;19.30;48.80;;;;;;5013885;28;19996;-58
2022/03/24 10:02:31;;;;;;;;;;;19.30;48.90;;;;;;5019527;28;20012;-58
2022/03/24 10:05:00;;;;;;;;;;;19.30;48.90;;;;;;5007212;28;20431;-53
2022/03/24 10:07:26;;;;;;;;;;;19.40;49.00;;;;;;5001044;28;19914;-52
2022/03/24 10:09:53;;;;;;;;;;;19.40;48.90;;;;;;5007295;28;19920;-54
2022/03/24 10:12:22;;;;;;;;;;;19.40;48.90;;;;;;5000796;28;19941;-57
2022/03/24 10:14:57;;;;;;;;;;;19.40;48.90;;;;;;5010556;28;19917;-51
2022/03/24 10:17:22;;;;;;;;;;;19.40;49.00;;;;;;5018806;28;21870;-56
2022/03/24 10:19:55;;;;;;;;;;;19.40;48.90;;;;;;5017286;28;20430;-54
2022/03/24 10:22:20;;;;;;;;;;;19.40;49.00;;;;;;5019589;28;19917;-57
2022/03/24 10:24:46;;;;;;;;;;;19.40;49.00;;;;;;5010770;28;19918;-58
2022/03/24 10:27:13;;;;;;;;;;;19.40;49.00;;;;;;4999849;28;19921;-57
2022/03/24 10:29:38;;;;;;;;;;;19.30;48.90;;;;;;5006053;28;20570;-58
2022/03/24 10:32:11;;;;;;;;;;;19.30;48.90;;;;;;5020080;28;19921;-56
2022/03/24 10:34:40;;;;;;;;;;;19.30;49.10;;;;;;5013487;28;19929;-56
2022/03/24 10:37:09;;;;;;;;;;;19.30;49.00;;;;;;5001141;28;19968;-58
2022/03/24 10:39:38;;;;;;;;;;;19.30;49.00;;;;;;5008872;28;19992;-55
2022/03/24 10:42:11;;;;;;;;;;;19.30;49.00;;;;;;5023180;28;19993;-59
2022/03/24 10:44:37;;;;;;;;;;;19.30;49.00;;;;;;5018583;28;19921;-56
2022/03/24 10:47:03;;;;;;;;;;;19.40;49.00;;;;;;5003566;28;19977;-59
2022/03/24 10:49:28;;;;;;;;;;;19.40;48.90;;;;;;5006688;28;19913;-55
2022/03/24 10:51:54;;;;;;;;;;;19.50;48.90;;;;;;5023141;28;19971;-58
2022/03/24 10:54:41;;;;;;;;;;;19.50;48.70;;;;;;5022292;28;19917;-57
2022/03/24 10:57:07;;;;;;;;;;;19.50;48.70;;;;;;5003436;28;19956;-55
2022/03/24 10:59:44;;;;;;;;;;;19.50;48.70;;;;;;5006201;28;20077;-57
2022/03/24 11:02:10;;;;;;;;;;;19.50;48.50;;;;;;5022822;28;19913;-58
2022/03/24 11:04:35;;;;;;;;;;;19.50;48.40;;;;;;5022770;28;20337;-55
2022/03/24 11:07:01;;;;;;;;;;;19.50;48.50;;;;;;5023249;28;19917;-58
2022/03/24 11:09:29;;;;;;;;;;;19.50;48.50;;;;;;5022827;28;19913;-58
2022/03/24 11:12:13;;;;;;;;;;;19.50;48.40;;;;;;5002807;28;19914;-57
2022/03/24 11:14:39;;;;;;;;;;;19.50;48.40;;;;;;5003985;28;20004;-53
2022/03/24 11:17:05;;;;;;;;;;;19.50;48.40;;;;;;5021255;28;20059;-53
2022/03/24 11:19:30;;;;;;;;;;;19.60;48.40;;;;;;5022705;28;19924;-58
2022/03/24 11:21:59;;;;;;;;;;;19.60;48.40;;;;;;5003490;28;19921;-58
2022/03/24 11:24:24;;;;;;;;;;;19.60;48.40;;;;;;5002997;28;19914;-58
2022/03/24 11:26:50;;;;;;;;;;;19.60;48.50;;;;;;5041770;22;19967;-68
2022/03/24 11:29:15;;;;;;;;;;;19.60;48.40;;;;;;4988936;28;20317;-70
2022/03/24 11:31:43;;;;;;;;;;;19.60;48.40;;;;;;5022934;28;19913;-70
2022/03/24 11:34:09;;;;;;;;;;;19.60;48.50;;;;;;5026530;28;19920;-71
2022/03/24 11:36:34;;;;;;;;;;;19.60;48.40;;;;;;5011990;28;19917;-71
2022/03/24 11:39:01;;;;;;;;;;;19.60;48.50;;;;;;5006600;28;20554;-71
2022/03/24 11:41:30;;;;;;;;;;;19.60;48.50;;;;;;5019040;28;19917;-71
2022/03/24 11:43:57;;;;;;;;;;;19.70;48.50;;;;;;5018883;28;19914;-69
2022/03/24 11:46:27;;;;;;;;;;;19.60;48.40;;;;;;5024444;28;19915;-69
2022/03/24 11:49:10;;;;;;;;;;;19.60;48.30;;;;;;5024524;28;20380;-71
2022/03/24 11:51:35;;;;;;;;;;;19.70;48.30;;;;;;5013037;28;20184;-70
2022/03/24 11:54:05;;;;;;;;;;;19.70;48.40;;;;;;5006383;28;19918;-70
2022/03/24 11:56:31;;;;;;;;;;;19.70;48.40;;;;;;5017059;28;19917;-70
2022/03/24 11:58:56;;;;;;;;;;;19.70;48.40;;;;;;5024837;28;19960;-68
2022/03/24 12:01:24;;;;;;;;;;;19.70;48.40;;;;;;5017834;28;20380;-68
2022/03/24 12:03:56;;;;;;;;;;;19.70;48.40;;;;;;5006230;28;19992;-68
2022/03/24 12:06:42;;;;;;;;;;;19.60;48.30;;;;;;5014254;28;20347;-67
2022/03/24 12:09:11;;;;;;;;;;;19.70;48.30;;;;;;5026577;28;19913;-68
2022/03/24 12:11:41;;;;;;;;;;;19.60;48.30;;;;;;5016689;28;19913;-67
2022/03/24 12:14:08;;;;;;;;;;;19.60;48.20;;;;;;5006788;28;19914;-70
2022/03/24 12:16:38;;;;;;;;;;;19.60;48.20;;;;;;5012462;28;19939;-71
2022/03/24 12:19:03;;;;;;;;;;;19.70;48.00;;;;;;5025237;28;19932;-71
2022/03/24 12:21:30;;;;;;;;;;;19.70;47.60;;;;;;5025458;28;20483;-71
2022/03/24 12:24:01;;;;;;;;;;;19.70;47.00;;;;;;5026413;28;19995;-70
2022/03/24 12:26:27;;;;;;;;;;;19.70;46.00;;;;;;5019530;28;19949;-70
2022/03/24 12:29:11;;;;;;;;;;;19.70;45.00;;;;;;5004044;28;20010;-72
2022/03/24 12:31:59;;;;;;;;;;;19.70;44.50;;;;;;5012989;28;19924;-69
2022/03/24 12:34:44;;;;;;;;;;;19.70;44.10;;;;;;5025196;28;20432;-71
2022/03/24 12:37:25;;;;;;;;;;;19.70;43.30;;;;;;5014516;28;20011;-70
2022/03/24 12:40:05;;;;;;;;;;;19.70;42.80;;;;;;5006091;28;19917;-69
2022/03/24 12:42:49;;;;;;;;;;;19.70;42.40;;;;;;5018887;28;19956;-71
2022/03/24 12:45:35;;;;;;;;;;;19.70;41.70;;;;;;5025285;28;20006;-70
2022/03/24 12:48:08;;;;;;;;;;;19.70;41.50;;;;;;4991008;28;20404;-69
2022/03/24 12:50:36;;;;;;;;;;;19.70;41.90;;;;;;5004629;28;19909;-72
2022/03/24 12:53:05;;;;;;;;;;;19.70;42.20;;;;;;5015190;28;20051;-70
2022/03/24 12:55:33;;;;;;;;;;;19.80;42.70;;;;;;5005452;28;19914;-71
2022/03/24 12:58:00;;;;;;;;;;;19.80;42.90;;;;;;5020819;28;19913;-71
2022/03/24 13:00:27;;;;;;;;;;;19.80;43.10;;;;;;5023712;28;19913;-72
2022/03/24 13:02:53;;;;;;;;;;;19.80;43.10;;;;;;5010747;28;20016;-72
2022/03/24 13:05:25;;;;;;;;;;;19.80;43.20;;;;;;5004935;28;20004;-71
2022/03/24 13:07:52;;;;;;;;;;;19.80;43.30;;;;;;5017154;28;19936;-71
2022/03/24 13:10:18;;;;;;;;;;;19.90;43.40;;;;;;5023236;28;19909;-71
2022/03/24 13:12:44;;;;;;;;;;;19.80;43.40;;;;;;5013803;28;19910;-71
2022/03/24 13:15:16;;;;;;;;;;;19.80;43.50;;;;;;5005608;28;20452;-71
2022/03/24 13:17:42;;;;;;;;;;;19.90;43.70;;;;;;5015032;28;19917;-71
2022/03/24 13:20:08;;;;;;;;;;;19.80;43.70;;;;;;5026209;28;19913;-70
2022/03/24 13:22:34;;;;;;;;;;;19.90;43.80;;;;;;5018512;28;19920;-70
2022/03/24 13:25:01;;;;;;;;;;;19.90;43.80;;;;;;5008116;28;19913;-70
2022/03/24 13:27:27;;;;;;;;;;;19.90;43.80;;;;;;5013607;28;20407;-71
2022/03/24 13:29:53;;;;;;;;;;;19.90;44.30;;;;;;5025885;28;19964;-72
2022/03/24 13:32:18;;;;;;;;;;;19.90;43.30;;;;;;5021672;28;19967;-72
2022/03/24 13:34:47;;;;;;;;;;;19.90;43.00;;;;;;5006243;28;19917;-72
2022/03/24 13:37:14;;;;;;;;;;;19.90;43.00;;;;;;5007402;28;19970;-71
2022/03/24 13:39:43;;;;;;;;;;;19.90;43.20;;;;;;5006065;28;19913;-71
2022/03/24 13:42:09;;;;;;;;;;;19.90;43.30;;;;;;5023457;28;19910;-72
2022/03/24 13:44:35;;;;;;;;;;;19.90;43.30;;;;;;4988446;28;19909;-71
2022/03/24 13:47:01;;;;;;;;;;;19.90;43.40;;;;;;5003705;28;20376;-71
2022/03/24 13:49:26;;;;;;;;;;;19.90;43.60;;;;;;5023723;28;19924;-72
2022/03/24 13:51:52;;;;;;;;;;;20.00;43.50;;;;;;5004719;28;20300;-69
2022/03/24 13:54:19;;;;;;;;;;;19.90;43.40;;;;;;5022363;28;19913;-72
2022/03/24 13:56:44;;;;;;;;;;;19.90;43.30;;;;;;5022258;28;20000;-72
2022/03/24 13:59:10;;;;;;;;;;;19.90;43.20;;;;;;5006439;28;19987;-70
2022/03/24 14:01:35;;;;;;;;;;;20.00;43.10;;;;;;5004327;28;19921;-70
2022/03/24 14:04:00;;;;;;;;;;;19.90;43.10;;;;;;5018273;28;19917;-72
2022/03/24 14:06:26;;;;;;;;;;;19.90;43.20;;;;;;5004172;28;20343;-70
2022/03/24 14:08:52;;;;;;;;;;;20.00;43.20;;;;;;5008910;28;19968;-69
2022/03/24 14:11:23;;;;;;;;;;;20.00;43.30;;;;;;5004207;28;19918;-72
2022/03/24 14:13:50;;;;;;;;;;;20.00;43.30;;;;;;5017418;28;19948;-71